createdAt,value
2022-11-09T00:01:25.715Z,3.30
2022-11-09T00:03:52.809Z,3.00
2022-11-09T00:06:19.886Z,3.30
2022-11-09T00:08:47.023Z,2.80
2022-11-09T00:11:14.146Z,2.85
2022-11-09T00:13:41.243Z,3.10
2022-11-09T00:16:08.327Z,3.20
2022-11-09T00:18:35.423Z,3.08
2022-11-09T00:21:02.645Z,3.33
2022-11-09T00:23:29.757Z,2.95
2022-11-09T00:25:56.844Z,2.80
2022-11-09T00:28:23.946Z,2.83
2022-11-09T00:30:51.035Z,2.72
2022-11-09T00:33:18.332Z,2.67
2022-11-09T00:35:45.667Z,2.70
2022-11-09T00:38:12.819Z,2.80
2022-11-09T00:40:39.907Z,2.72
2022-11-09T00:43:06.978Z,3.10
2022-11-09T00:45:34.037Z,3.10
2022-11-09T00:48:01.154Z,2.63
2022-11-09T00:50:28.291Z,2.85
2022-11-09T00:52:55.389Z,2.70
2022-11-09T00:55:24.010Z,2.70
2022-11-09T00:57:51.107Z,2.95
2022-11-09T01:00:19.025Z,2.70
2022-11-09T01:02:46.150Z,2.78
2022-11-09T01:05:13.248Z,2.60
2022-11-09T01:07:40.324Z,2.88
2022-11-09T01:10:07.469Z,2.63
2022-11-09T01:12:34.542Z,2.80
2022-11-09T01:15:01.636Z,2.95
2022-11-09T01:17:28.758Z,2.65
2022-11-09T01:19:55.882Z,2.55
2022-11-09T01:22:22.975Z,2.90
2022-11-09T01:24:50.129Z,2.88
2022-11-09T01:27:17.185Z,2.80
2022-11-09T01:29:46.337Z,2.88
2022-11-09T01:32:13.419Z,2.60
2022-11-09T01:34:40.867Z,2.85
2022-11-09T01:37:07.955Z,2.50
2022-11-09T01:39:35.095Z,2.92
2022-11-09T01:42:02.218Z,2.60
2022-11-09T01:44:29.307Z,2.90
2022-11-09T01:46:59.393Z,2.58
2022-11-09T01:49:26.466Z,2.72
2022-11-09T01:51:53.605Z,2.60
2022-11-09T01:54:20.746Z,2.58
2022-11-09T01:56:47.818Z,2.58
2022-11-09T01:59:14.884Z,2.42
2022-11-09T02:01:42.086Z,2.65
2022-11-09T02:04:09.217Z,2.55
2022-11-09T02:06:36.369Z,2.58
2022-11-09T02:09:03.529Z,2.70
2022-11-09T02:11:30.612Z,2.80
2022-11-09T02:13:57.706Z,2.70
2022-11-09T02:16:24.781Z,2.50
2022-11-09T02:18:51.875Z,2.70
2022-11-09T02:21:18.945Z,2.55
2022-11-09T02:23:46.022Z,2.53
2022-11-09T02:26:13.100Z,2.80
2022-11-09T02:28:40.157Z,2.50
2022-11-09T02:31:07.228Z,2.40
2022-11-09T02:33:34.307Z,2.50
2022-11-09T02:36:01.388Z,2.42
2022-11-09T02:38:28.453Z,2.70
2022-11-09T02:40:55.591Z,2.50
2022-11-09T02:43:22.888Z,2.70
2022-11-09T02:45:50.144Z,2.50
2022-11-09T02:48:17.205Z,2.33
2022-11-09T02:50:44.301Z,2.40
2022-11-09T02:53:11.374Z,2.45
2022-11-09T02:55:38.519Z,2.47
2022-11-09T02:58:05.786Z,2.38
2022-11-09T03:00:32.907Z,2.58
2022-11-09T03:02:59.994Z,2.50
2022-11-09T03:05:27.105Z,2.40
2022-11-09T03:07:54.238Z,2.47
2022-11-09T03:10:21.451Z,2.30
2022-11-09T03:12:48.510Z,2.20
2022-11-09T03:15:15.595Z,2.40
2022-11-09T03:17:42.689Z,2.40
2022-11-09T03:20:09.764Z,2.45
2022-11-09T03:22:36.828Z,2.50
2022-11-09T03:25:03.921Z,2.50
2022-11-09T03:27:30.994Z,2.40
2022-11-09T03:29:58.073Z,2.50
2022-11-09T03:32:25.180Z,2.58
2022-11-09T03:34:52.317Z,2.22
2022-11-09T03:37:19.486Z,2.45
2022-11-09T03:39:46.626Z,2.47
2022-11-09T03:42:13.752Z,2.47
2022-11-09T03:44:40.867Z,2.55
2022-11-09T03:47:08.026Z,2.22
2022-11-09T03:49:35.184Z,2.35
2022-11-09T03:52:02.814Z,2.25
2022-11-09T03:54:29.941Z,2.50
2022-11-09T03:56:57.095Z,2.45
2022-11-09T03:59:24.197Z,2.50
2022-11-09T04:01:51.294Z,2.40
2022-11-09T04:04:18.487Z,2.60
2022-11-09T04:06:45.611Z,2.38
2022-11-09T04:09:12.744Z,2.40
2022-11-09T04:11:39.818Z,2.22
2022-11-09T04:14:06.891Z,2.50
2022-11-09T04:16:34.023Z,2.25
2022-11-09T04:19:01.117Z,2.30
2022-11-09T04:21:28.259Z,2.30
2022-11-09T04:23:55.379Z,2.45
2022-11-09T04:26:22.467Z,2.30
2022-11-09T04:28:49.539Z,2.20
2022-11-09T04:31:16.715Z,2.53
2022-11-09T04:33:43.823Z,2.50
2022-11-09T04:36:10.888Z,2.40
2022-11-09T04:38:37.974Z,2.17
2022-11-09T04:41:05.132Z,2.50
2022-11-09T04:43:32.253Z,2.50
2022-11-09T04:45:59.315Z,1.95
2022-11-09T04:48:26.416Z,2.28
2022-11-09T04:50:53.521Z,2.20
2022-11-09T04:53:20.928Z,2.30
2022-11-09T04:55:48.177Z,2.28
2022-11-09T04:58:15.274Z,2.22
2022-11-09T05:00:42.454Z,2.15
2022-11-09T05:03:09.581Z,2.22
2022-11-09T05:05:36.706Z,2.25
2022-11-09T05:08:03.782Z,2.30
2022-11-09T05:10:30.935Z,2.10
2022-11-09T05:12:58.098Z,2.50
2022-11-09T05:15:25.182Z,2.45
2022-11-09T05:17:52.267Z,2.40
2022-11-09T05:20:19.405Z,2.38
2022-11-09T05:23:05.354Z,2.20
2022-11-09T05:25:32.439Z,2.60
2022-11-09T05:27:59.568Z,2.08
2022-11-09T05:30:26.686Z,1.90
2022-11-09T05:32:53.791Z,2.20
2022-11-09T05:35:20.884Z,2.08
2022-11-09T05:37:48.465Z,2.30
2022-11-09T05:40:15.538Z,2.10
2022-11-09T05:42:42.655Z,2.30
2022-11-09T05:45:40.213Z,2.30
2022-11-09T05:47:56.903Z,2.00
2022-11-09T05:50:24.045Z,2.00
2022-11-09T05:52:52.933Z,2.30
2022-11-09T05:55:20.050Z,2.10
2022-11-09T05:57:47.134Z,2.20
2022-11-09T06:00:14.206Z,2.15
2022-11-09T06:02:41.428Z,2.20
2022-11-09T06:05:08.508Z,2.10
2022-11-09T06:07:35.597Z,2.10
2022-11-09T06:10:02.667Z,1.95
2022-11-09T06:12:29.746Z,2.10
2022-11-09T06:14:56.841Z,2.00
2022-11-09T06:17:23.899Z,2.15
2022-11-09T06:19:50.984Z,2.20
2022-11-09T06:22:18.091Z,2.20
2022-11-09T06:24:45.158Z,2.05
2022-11-09T06:27:12.235Z,2.28
2022-11-09T06:29:39.364Z,1.92
2022-11-09T06:32:06.597Z,2.42
2022-11-09T06:34:33.671Z,2.17
2022-11-09T06:37:00.790Z,2.40
2022-11-09T06:39:27.846Z,2.20
2022-11-09T06:41:54.937Z,2.35
2022-11-09T06:44:22.018Z,2.05
2022-11-09T06:46:49.094Z,2.20
2022-11-09T06:49:16.165Z,2.00
2022-11-09T06:51:43.302Z,2.35
2022-11-09T06:54:10.404Z,2.15
2022-11-09T06:56:37.521Z,2.00
2022-11-09T06:59:04.614Z,2.03
2022-11-09T07:01:31.832Z,2.05
2022-11-09T07:03:59.047Z,2.17
2022-11-09T07:06:26.122Z,1.98
2022-11-09T07:08:53.206Z,2.15
2022-11-09T07:11:20.326Z,2.00
2022-11-09T07:13:47.474Z,2.22
2022-11-09T07:16:17.357Z,2.30
2022-11-09T07:18:45.095Z,2.13
2022-11-09T07:21:14.288Z,2.38
2022-11-09T07:23:41.658Z,2.30
2022-11-09T07:26:08.798Z,2.15
2022-11-09T07:28:35.901Z,2.15
2022-11-09T07:31:03.133Z,2.20
2022-11-09T07:33:30.590Z,2.25
2022-11-09T07:35:57.666Z,2.15
2022-11-09T07:38:24.807Z,2.00
2022-11-09T07:40:51.934Z,1.92
2022-11-09T07:43:19.539Z,2.33
2022-11-09T07:45:46.919Z,2.25
2022-11-09T07:48:14.171Z,2.20
2022-11-09T07:50:41.365Z,2.00
2022-11-09T07:53:08.538Z,2.30
2022-11-09T07:55:35.674Z,2.30
2022-11-09T07:58:02.872Z,2.38
2022-11-09T08:00:30.158Z,2.10
2022-11-09T08:02:57.392Z,2.22
2022-11-09T08:05:24.507Z,2.40
2022-11-09T08:07:51.576Z,2.10
2022-11-09T08:10:18.644Z,2.47
2022-11-09T08:12:45.918Z,1.90
2022-11-09T08:15:13.000Z,2.10
2022-11-09T08:17:40.084Z,2.22
2022-11-09T08:20:07.165Z,2.13
2022-11-09T08:22:34.249Z,2.20
2022-11-09T08:25:01.418Z,2.30
2022-11-09T08:27:28.546Z,2.38
2022-11-09T08:29:55.620Z,2.17
2022-11-09T08:32:22.747Z,2.00
2022-11-09T08:34:49.829Z,2.20
2022-11-09T08:37:17.057Z,2.10
2022-11-09T08:39:44.199Z,2.20
2022-11-09T08:42:11.271Z,2.10
2022-11-09T08:44:38.355Z,2.30
2022-11-09T08:47:05.439Z,2.10
2022-11-09T08:49:32.602Z,2.30
2022-11-09T08:51:59.688Z,2.22
2022-11-09T08:54:26.798Z,2.05
2022-11-09T08:56:53.886Z,1.95
2022-11-09T08:59:20.983Z,2.25
2022-11-09T09:01:48.156Z,2.38
2022-11-09T09:04:15.296Z,2.40
2022-11-09T09:06:42.467Z,2.25
2022-11-09T09:09:09.612Z,2.40
2022-11-09T09:11:36.784Z,2.22
2022-11-09T09:14:03.882Z,2.85
2022-11-09T09:16:31.059Z,2.40
2022-11-09T09:18:58.150Z,2.60
2022-11-09T09:21:25.227Z,2.22
2022-11-09T09:23:52.307Z,2.30
2022-11-09T09:26:19.536Z,2.28
2022-11-09T09:28:46.613Z,2.30
2022-11-09T09:31:18.215Z,2.25
2022-11-09T09:33:46.512Z,2.25
2022-11-09T09:36:13.591Z,2.45
2022-11-09T09:38:40.675Z,2.15
2022-11-09T09:41:07.756Z,2.55
2022-11-09T09:43:39.744Z,2.55
2022-11-09T09:46:09.744Z,2.10
2022-11-09T09:48:36.889Z,2.28
2022-11-09T09:51:04.011Z,2.50
2022-11-09T09:53:31.135Z,2.33
2022-11-09T09:55:58.260Z,2.30
2022-11-09T09:58:29.294Z,2.50
2022-11-09T10:00:56.938Z,2.75
2022-11-09T10:03:24.097Z,2.40
2022-11-09T10:05:51.195Z,2.50
2022-11-09T10:08:18.566Z,2.22
2022-11-09T10:10:46.341Z,2.30
2022-11-09T10:13:13.411Z,2.67
2022-11-09T10:15:40.670Z,2.60
2022-11-09T10:18:07.793Z,2.25
2022-11-09T10:20:34.926Z,2.30
2022-11-09T10:23:02.093Z,2.53
2022-11-09T10:26:02.987Z,2.85
2022-11-09T10:28:16.276Z,2.40
2022-11-09T10:30:43.381Z,2.50
2022-11-09T10:33:10.462Z,2.70
2022-11-09T10:35:37.526Z,2.53
2022-11-09T10:38:04.608Z,2.58
2022-11-09T10:40:31.813Z,2.47
2022-11-09T10:42:58.947Z,2.55
2022-11-09T10:45:26.045Z,2.45
2022-11-09T10:47:53.163Z,2.53
2022-11-09T10:50:20.269Z,2.40
2022-11-09T10:52:47.885Z,2.58
2022-11-09T10:55:15.080Z,2.50
2022-11-09T10:57:42.154Z,2.63
2022-11-09T11:00:09.247Z,2.60
2022-11-09T11:02:36.371Z,2.30
2022-11-09T11:05:03.519Z,2.30
2022-11-09T11:07:30.653Z,2.70
2022-11-09T11:09:57.739Z,2.60
2022-11-09T11:12:24.827Z,2.60
2022-11-09T11:14:52.301Z,2.60
2022-11-09T11:17:19.402Z,2.50
2022-11-09T11:19:46.844Z,2.90
2022-11-09T11:22:23.464Z,2.80
2022-11-09T11:24:50.744Z,2.72
2022-11-09T11:27:18.100Z,2.55
2022-11-09T11:29:45.303Z,2.60
2022-11-09T11:32:12.527Z,2.75
2022-11-09T11:34:59.094Z,2.60
2022-11-09T11:37:26.720Z,2.63
2022-11-09T11:39:53.824Z,2.35
2022-11-09T11:42:20.944Z,2.70
2022-11-09T11:44:54.830Z,2.63
2022-11-09T11:47:26.513Z,2.70
2022-11-09T11:49:53.579Z,2.80
2022-11-09T11:52:20.714Z,2.67
2022-11-09T11:54:48.014Z,2.63
2022-11-09T11:57:15.242Z,2.75
2022-11-09T11:59:42.379Z,2.58
2022-11-09T12:02:09.559Z,2.60
2022-11-09T12:04:36.783Z,2.50
2022-11-09T12:07:04.170Z,2.42
2022-11-09T12:09:31.400Z,2.72
2022-11-09T12:11:58.529Z,2.70
2022-11-09T12:14:25.672Z,2.65
2022-11-09T12:16:52.758Z,2.47
2022-11-09T12:19:23.943Z,2.65
2022-11-09T12:21:54.188Z,2.45
2022-11-09T12:24:21.325Z,2.30
2022-11-09T12:27:04.705Z,2.60
2022-11-09T12:29:43.299Z,2.55
2022-11-09T12:32:10.542Z,2.60
2022-11-09T12:34:37.608Z,2.42
2022-11-09T12:37:04.698Z,2.40
2022-11-09T12:39:31.847Z,2.60
2022-11-09T12:41:58.934Z,2.30
2022-11-09T12:44:26.090Z,2.50
2022-11-09T12:46:53.360Z,2.58
2022-11-09T12:49:20.530Z,2.63
2022-11-09T12:51:47.636Z,2.63
2022-11-09T12:54:14.839Z,2.30
2022-11-09T12:56:41.946Z,2.40
2022-11-09T12:59:09.030Z,2.40
2022-11-09T13:01:36.147Z,2.50
2022-11-09T13:04:03.323Z,2.10
2022-11-09T13:06:30.557Z,2.50
2022-11-09T13:08:57.897Z,2.30
2022-11-09T13:11:24.988Z,2.60
2022-11-09T13:13:52.095Z,2.42
2022-11-09T13:16:19.346Z,2.60
2022-11-09T13:18:46.423Z,2.70
2022-11-09T13:21:13.506Z,2.42
2022-11-09T13:23:59.813Z,2.40
2022-11-09T13:26:27.528Z,2.30
2022-11-09T13:28:54.621Z,2.47
2022-11-09T13:31:21.705Z,2.33
2022-11-09T13:33:48.771Z,2.50
2022-11-09T13:36:15.935Z,2.28
2022-11-09T13:38:43.145Z,2.30
2022-11-09T13:41:10.241Z,2.30
2022-11-09T13:43:37.341Z,2.25
2022-11-09T13:46:04.544Z,2.40
2022-11-09T13:48:32.157Z,2.35
2022-11-09T13:50:59.328Z,2.30
2022-11-09T13:53:26.497Z,2.28
2022-11-09T13:55:53.635Z,2.20
2022-11-09T13:58:20.997Z,2.50
2022-11-09T14:00:48.330Z,2.42
2022-11-09T14:03:15.419Z,2.30
2022-11-09T14:05:42.518Z,2.10
2022-11-09T14:08:09.599Z,2.25
2022-11-09T14:10:36.757Z,1.90
2022-11-09T14:13:03.863Z,2.20
2022-11-09T14:15:31.001Z,2.20
2022-11-09T14:17:58.077Z,2.45
2022-11-09T14:20:25.270Z,2.20
2022-11-09T14:22:52.385Z,2.20
2022-11-09T14:25:19.449Z,2.15
2022-11-09T14:27:46.711Z,2.30
2022-11-09T14:30:14.773Z,2.30
2022-11-09T14:32:41.907Z,2.20
2022-11-09T14:35:08.994Z,2.13
2022-11-09T14:37:36.526Z,2.35
2022-11-09T14:40:03.619Z,2.20
2022-11-09T14:42:30.762Z,2.33
2022-11-09T14:44:58.665Z,2.22
2022-11-09T14:47:25.799Z,2.00
2022-11-09T14:49:52.912Z,2.30
2022-11-09T14:52:20.064Z,2.17
2022-11-09T14:54:47.152Z,2.03
2022-11-09T14:57:14.229Z,2.30
2022-11-09T14:59:41.334Z,2.08
2022-11-09T15:02:08.425Z,2.40
2022-11-09T15:04:35.902Z,2.08
2022-11-09T15:07:03.819Z,2.03
2022-11-09T15:09:30.962Z,2.05
2022-11-09T15:11:58.029Z,1.92
2022-11-09T15:14:25.127Z,2.10
2022-11-09T15:16:52.266Z,2.20
2022-11-09T15:19:19.434Z,2.10
2022-11-09T15:21:46.512Z,2.13
2022-11-09T15:24:14.278Z,2.20
2022-11-09T15:26:41.460Z,2.20
2022-11-09T15:29:08.556Z,2.20
2022-11-09T15:31:35.640Z,1.80
2022-11-09T15:34:02.772Z,2.15
2022-11-09T15:36:29.941Z,2.03
2022-11-09T15:38:57.953Z,2.10
2022-11-09T15:41:25.066Z,2.33
2022-11-09T15:43:52.173Z,1.90
2022-11-09T15:46:19.244Z,2.20
2022-11-09T15:48:46.581Z,1.88
2022-11-09T15:51:13.785Z,2.13
2022-11-09T15:53:40.987Z,2.05
2022-11-09T15:56:09.814Z,2.00
2022-11-09T15:58:36.991Z,2.10
2022-11-09T16:01:04.119Z,1.90
2022-11-09T16:03:31.236Z,2.10
2022-11-09T16:05:59.426Z,2.03
2022-11-09T16:08:26.508Z,1.90
2022-11-09T16:10:53.799Z,2.03
2022-11-09T16:13:20.862Z,2.10
2022-11-09T16:15:48.019Z,1.80
2022-11-09T16:18:16.816Z,2.00
2022-11-09T16:20:46.203Z,2.10
2022-11-09T16:23:13.292Z,2.15
2022-11-09T16:25:40.405Z,2.20
2022-11-09T16:28:07.564Z,2.10
2022-11-09T16:30:34.707Z,2.30
2022-11-09T16:33:01.802Z,2.03
2022-11-09T16:35:29.155Z,2.20
2022-11-09T16:37:56.413Z,1.98
2022-11-09T16:40:23.493Z,2.10
2022-11-09T16:42:50.569Z,1.95
2022-11-09T16:45:17.830Z,2.20
2022-11-09T16:47:45.013Z,2.10
2022-11-09T16:50:12.095Z,2.10
2022-11-09T16:52:39.191Z,2.00
2022-11-09T16:55:07.817Z,2.20
2022-11-09T16:57:34.904Z,2.10
2022-11-09T17:00:02.013Z,2.00
2022-11-09T17:02:29.237Z,2.22
2022-11-09T17:04:56.360Z,1.88
2022-11-09T17:07:23.550Z,2.40
2022-11-09T17:09:50.625Z,2.40
2022-11-09T17:12:17.719Z,2.20
2022-11-09T17:14:44.827Z,2.20
2022-11-09T17:17:11.941Z,2.13
2022-11-09T17:19:39.210Z,2.13
2022-11-09T17:22:06.402Z,2.28
2022-11-09T17:24:33.560Z,2.20
2022-11-09T17:27:00.705Z,2.30
2022-11-09T17:29:27.909Z,2.20
2022-11-09T17:31:55.028Z,2.30
2022-11-09T17:34:22.118Z,2.38
2022-11-09T17:37:03.777Z,2.22
2022-11-09T17:39:32.041Z,2.28
2022-11-09T17:41:59.171Z,2.47
2022-11-09T17:44:26.245Z,2.05
2022-11-09T17:46:53.553Z,2.50
2022-11-09T17:49:20.644Z,2.50
2022-11-09T17:51:47.748Z,2.60
2022-11-09T17:54:15.071Z,2.67
2022-11-09T17:56:42.305Z,2.50
2022-11-09T17:59:09.442Z,2.40
2022-11-09T18:01:41.763Z,2.72
2022-11-09T18:04:09.142Z,2.83
2022-11-09T18:06:36.303Z,2.78
2022-11-09T18:09:39.083Z,2.55
2022-11-09T18:11:50.525Z,2.80
2022-11-09T18:14:17.646Z,2.80
2022-11-09T18:16:45.333Z,2.67
2022-11-09T18:19:12.500Z,2.60
2022-11-09T18:21:39.584Z,3.20
2022-11-09T18:24:06.819Z,2.90
2022-11-09T18:26:34.307Z,2.88
2022-11-09T18:29:01.472Z,2.95
2022-11-09T18:31:28.610Z,3.05
2022-11-09T18:33:55.775Z,3.00
2022-11-09T18:36:23.487Z,3.00
2022-11-09T18:38:52.077Z,3.20
2022-11-09T18:41:19.273Z,2.75
2022-11-09T18:43:46.389Z,3.13
2022-11-09T18:46:13.537Z,3.10
2022-11-09T18:48:40.640Z,3.00
2022-11-09T18:51:07.769Z,3.28
2022-11-09T18:53:35.243Z,3.25
2022-11-09T18:56:06.551Z,3.10
2022-11-09T18:58:34.117Z,3.30
2022-11-09T19:01:01.343Z,3.40
2022-11-09T19:03:28.453Z,3.42
2022-11-09T19:05:55.587Z,3.30
2022-11-09T19:08:42.772Z,3.50
2022-11-09T19:11:09.895Z,3.20
2022-11-09T19:13:37.091Z,3.22
2022-11-09T19:16:04.175Z,3.67
2022-11-09T19:18:31.255Z,3.33
2022-11-09T19:20:58.336Z,3.20
2022-11-09T19:23:31.277Z,3.50
2022-11-09T19:26:01.347Z,3.50
2022-11-09T19:28:28.546Z,3.88
2022-11-09T19:30:55.629Z,3.58
2022-11-09T19:33:22.754Z,3.60
2022-11-09T19:36:15.133Z,3.42
2022-11-09T19:38:36.955Z,3.80
2022-11-09T19:41:04.106Z,3.10
2022-11-09T19:43:31.206Z,3.55
2022-11-09T19:45:58.367Z,3.47
2022-11-09T19:48:26.541Z,3.40
2022-11-09T19:50:53.723Z,3.33
2022-11-09T19:53:20.801Z,3.28
2022-11-09T19:55:47.867Z,3.30
2022-11-09T19:58:15.009Z,3.05
2022-11-09T20:00:42.103Z,3.42
2022-11-09T20:03:09.220Z,3.20
2022-11-09T20:05:36.297Z,3.08
2022-11-09T20:08:03.653Z,3.30
2022-11-09T20:10:30.755Z,3.20
2022-11-09T20:12:58.585Z,2.72
2022-11-09T20:15:25.687Z,3.20
2022-11-09T20:17:52.914Z,2.92
2022-11-09T20:20:20.041Z,3.00
2022-11-09T20:22:47.144Z,3.13
2022-11-09T20:25:14.320Z,3.38
2022-11-09T20:27:41.455Z,3.10
2022-11-09T20:30:08.616Z,3.35
2022-11-09T20:32:35.761Z,3.20
2022-11-09T20:35:02.934Z,3.03
2022-11-09T20:37:30.090Z,3.10
2022-11-09T20:39:57.177Z,3.13
2022-11-09T20:42:24.254Z,3.10
2022-11-09T20:44:52.620Z,3.13
2022-11-09T20:47:41.935Z,2.80
2022-11-09T20:50:07.073Z,3.20
2022-11-09T20:52:34.208Z,2.70
2022-11-09T20:55:01.321Z,2.95
2022-11-09T20:57:28.443Z,3.20
2022-11-09T20:59:55.523Z,2.95
2022-11-09T21:02:22.578Z,2.70
2022-11-09T21:04:49.736Z,2.58
2022-11-09T21:07:16.847Z,2.88
2022-11-09T21:09:43.944Z,2.95
2022-11-09T21:12:24.841Z,2.90
2022-11-09T21:14:53.004Z,2.58
2022-11-09T21:17:20.266Z,2.90
2022-11-09T21:19:47.522Z,2.65
2022-11-09T21:22:14.591Z,2.75
2022-11-09T21:25:00.677Z,2.70
2022-11-09T21:30:21.220Z,2.60
2022-11-09T21:32:48.291Z,2.70
2022-11-09T21:35:15.354Z,2.88
2022-11-09T21:37:42.474Z,2.90
2022-11-09T21:40:09.735Z,3.13
2022-11-09T21:42:36.815Z,2.92
2022-11-09T21:45:04.059Z,3.00
2022-11-09T21:47:31.326Z,2.95
2022-11-09T21:49:58.437Z,2.83
2022-11-09T21:52:25.786Z,2.75
2022-11-09T21:54:52.873Z,2.80
2022-11-09T21:57:19.934Z,2.70
2022-11-09T21:59:47.037Z,2.47
2022-11-09T22:02:14.140Z,2.72
2022-11-09T22:04:41.235Z,2.80
2022-11-09T22:07:09.466Z,2.47
2022-11-09T22:10:06.030Z,2.55
2022-11-09T22:12:43.366Z,2.70
2022-11-09T22:15:29.394Z,2.63
2022-11-09T22:17:56.472Z,2.60
2022-11-09T22:20:42.208Z,2.65
2022-11-09T22:23:09.319Z,2.55
2022-11-09T22:25:36.409Z,2.42
2022-11-09T22:28:03.530Z,2.80
2022-11-09T22:30:30.721Z,2.67
2022-11-09T22:32:57.798Z,2.25
2022-11-09T22:35:24.894Z,2.50
2022-11-09T22:37:52.001Z,2.40
2022-11-09T22:40:19.139Z,2.53
2022-11-09T22:42:46.240Z,2.63
2022-11-09T22:45:13.396Z,2.40
2022-11-09T22:47:40.935Z,2.30
2022-11-09T22:50:08.026Z,2.50
2022-11-09T22:52:35.231Z,2.30
2022-11-09T22:55:02.330Z,2.35
2022-11-09T22:57:32.881Z,2.30
2022-11-09T22:59:59.955Z,2.50
2022-11-09T23:02:27.050Z,2.33
2022-11-09T23:04:54.164Z,2.30
2022-11-09T23:07:21.266Z,2.20
2022-11-09T23:09:48.368Z,2.33
2022-11-09T23:12:15.446Z,2.20
2022-11-09T23:15:01.314Z,1.98
2022-11-09T23:17:47.285Z,2.20
2022-11-09T23:20:14.428Z,2.38
2022-11-09T23:22:41.506Z,1.95
2022-11-09T23:25:27.540Z,2.10
2022-11-09T23:30:21.603Z,1.98
2022-11-09T23:32:48.687Z,2.00
2022-11-09T23:35:15.766Z,1.92
2022-11-09T23:37:42.860Z,2.10
2022-11-09T23:40:09.969Z,1.85
2022-11-09T23:42:37.051Z,1.88
2022-11-09T23:45:04.155Z,2.00
2022-11-09T23:47:31.243Z,1.92
2022-11-09T23:49:58.386Z,2.03
2022-11-09T23:52:25.455Z,2.20
2022-11-09T23:54:52.513Z,1.88
2022-11-09T23:57:19.655Z,1.90
2022-11-09T23:59:46.731Z,1.98
